Time;durP1;ratioP1;P1;durP2;ratioP2;P2;SDS_P1;SDS_P2;PMS_P1;PMS_P2;Temp;Humidity;BMP_temperature;BMP_pressure;BME280_temperature;BME280_humidity;BME280_pressure;Samples;Min_cycle;Max_cycle;Signal;HPM_P1;HPM_P2
2023/04/13 00:00:31;;;;;;;1.53;0.87;;;9.30;99.90;;;;;;5052390;28;20278;-68
2023/04/13 00:02:59;;;;;;;2.17;0.80;;;9.40;99.90;;;;;;5052126;28;20186;-69
2023/04/13 00:05:27;;;;;;;1.70;0.70;;;9.40;99.90;;;;;;5068841;28;20215;-65
2023/04/13 00:07:56;;;;;;;1.23;0.60;;;9.40;99.90;;;;;;5055737;28;20177;-68
2023/04/13 00:10:24;;;;;;;1.27;0.73;;;9.40;99.90;;;;;;5054819;28;20208;-68
2023/04/13 00:12:50;;;;;;;0.87;0.63;;;9.40;99.90;;;;;;5056164;28;20236;-65
2023/04/13 00:15:20;;;;;;;1.43;0.70;;;9.50;99.90;;;;;;5055753;28;20343;-66
2023/04/13 00:17:46;;;;;;;1.27;0.60;;;9.50;99.90;;;;;;5056289;28;20248;-66
2023/04/13 00:20:13;;;;;;;3.23;0.90;;;9.50;99.90;;;;;;5043435;28;20446;-67
2023/04/13 00:22:42;;;;;;;1.87;0.53;;;9.50;99.90;;;;;;5054984;28;20201;-66
2023/04/13 00:25:10;;;;;;;1.50;0.80;;;9.60;99.90;;;;;;5055458;28;20252;-68
2023/04/13 00:27:39;;;;;;;0.80;0.60;;;9.60;99.90;;;;;;5053496;28;20174;-67
2023/04/13 00:30:17;;;;;;;2.43;0.70;;;9.50;99.90;;;;;;5055453;28;20183;-68
2023/04/13 00:32:46;;;;;;;2.10;0.60;;;9.60;99.90;;;;;;5060420;28;20192;-68
2023/04/13 00:35:17;;;;;;;4.67;0.77;;;9.70;99.90;;;;;;5068076;28;20212;-67
2023/04/13 00:37:46;;;;;;;2.00;0.60;;;9.60;99.90;;;;;;5055045;28;20189;-67
2023/04/13 00:40:15;;;;;;;1.80;0.70;;;9.70;99.90;;;;;;5050112;28;20197;-67
2023/04/13 00:42:48;;;;;;;1.23;0.67;;;9.70;99.90;;;;;;5053153;28;20260;-68
2023/04/13 00:45:16;;;;;;;1.87;0.67;;;9.70;99.90;;;;;;5052086;28;20240;-67
2023/04/13 00:47:47;;;;;;;1.03;0.60;;;9.70;99.90;;;;;;5068046;28;20194;-67
2023/04/13 00:50:15;;;;;;;3.40;1.47;;;9.80;99.90;;;;;;5053560;28;20235;-68
2023/04/13 00:52:41;;;;;;;1.53;0.73;;;9.80;99.90;;;;;;5053035;28;20181;-67
2023/04/13 00:55:09;;;;;;;2.30;0.63;;;9.80;99.90;;;;;;5071733;28;20182;-68
2023/04/13 00:57:39;;;;;;;1.80;0.70;;;9.80;99.90;;;;;;5054851;28;20173;-67
2023/04/13 01:00:11;;;;;;;2.43;0.70;;;9.80;99.90;;;;;;5055155;28;20213;-67
2023/04/13 01:02:40;;;;;;;1.67;1.00;;;9.80;99.90;;;;;;5050449;28;20212;-67
2023/04/13 01:05:07;;;;;;;1.95;0.77;;;9.70;99.90;;;;;;5036271;28;20173;-68
2023/04/13 01:07:48;;;;;;;1.70;0.70;;;9.80;99.90;;;;;;5051833;28;20277;-68
2023/04/13 01:10:17;;;;;;;1.67;0.53;;;9.80;99.90;;;;;;5047875;28;20185;-67
2023/04/13 01:13:09;;;;;;;2.27;0.70;;;9.80;99.90;;;;;;5035099;28;20202;-68
2023/04/13 01:15:41;;;;;;;2.73;0.77;;;9.80;99.90;;;;;;5054021;28;20185;-68
2023/04/13 01:18:10;;;;;;;3.13;0.90;;;9.80;99.90;;;;;;5053479;28;20232;-67
2023/04/13 01:20:40;;;;;;;1.60;0.80;;;9.80;99.90;;;;;;5054565;28;20228;-67
2023/04/13 01:23:24;;;;;;;2.03;0.70;;;9.80;99.90;;;;;;5054965;28;20179;-68
2023/04/13 01:25:57;;;;;;;3.43;0.83;;;9.80;99.90;;;;;;5051027;28;20503;-67
2023/04/13 01:28:24;;;;;;;1.58;0.60;;;9.70;99.90;;;;;;5045327;28;20177;-68
2023/04/13 01:30:52;;;;;;;2.50;0.70;;;9.70;99.90;;;;;;5048847;28;20259;-69
2023/04/13 01:33:21;;;;;;;2.20;0.70;;;9.70;99.90;;;;;;5048818;28;20174;-69
2023/04/13 01:35:49;;;;;;;3.53;0.68;;;9.70;99.90;;;;;;5052536;28;20181;-68
2023/04/13 01:38:17;;;;;;;1.00;0.60;;;9.70;99.90;;;;;;5053670;28;20212;-69
2023/04/13 01:40:45;;;;;;;1.57;0.70;;;9.70;99.90;;;;;;5052616;28;20212;-69
2023/04/13 01:43:13;;;;;;;2.43;1.20;;;9.70;99.90;;;;;;5063412;28;20203;-69
2023/04/13 01:45:53;;;;;;;2.17;0.70;;;9.70;99.90;;;;;;5050743;28;20197;-68
2023/04/13 01:48:28;;;;;;;2.30;0.70;;;9.60;99.90;;;;;;5047273;28;20292;-68
2023/04/13 01:51:02;;;;;;;2.30;0.93;;;9.60;99.90;;;;;;5052932;28;20208;-69
2023/04/13 01:53:33;;;;;;;4.10;0.80;;;9.70;99.90;;;;;;5053560;28;20172;-68
2023/04/13 01:55:59;;;;;;;1.97;1.00;;;9.60;99.90;;;;;;5055484;28;20177;-68
2023/04/13 01:58:32;;;;;;;2.50;0.70;;;9.70;99.90;;;;;;5054187;28;20169;-68
2023/04/13 02:00:58;;;;;;;1.10;0.60;;;9.60;99.90;;;;;;5069784;28;20181;-67
2023/04/13 02:03:24;;;;;;;1.63;0.50;;;9.70;99.90;;;;;;5054669;28;20205;-68
2023/04/13 02:05:50;;;;;;;1.37;0.60;;;9.60;99.90;;;;;;5053321;28;20189;-68
2023/04/13 02:08:17;;;;;;;1.10;0.60;;;9.70;99.90;;;;;;5053875;28;20278;-67
2023/04/13 02:10:44;;;;;;;1.95;0.52;;;9.70;99.90;;;;;;5039007;28;20268;-68
2023/04/13 02:13:10;;;;;;;2.60;0.77;;;9.70;99.90;;;;;;5043697;28;20178;-68
2023/04/13 02:15:39;;;;;;;2.13;0.63;;;9.60;99.90;;;;;;5055495;28;20264;-67
2023/04/13 02:18:09;;;;;;;1.93;0.67;;;9.60;99.90;;;;;;5054438;28;20181;-68
2023/04/13 02:20:42;;;;;;;1.80;0.80;;;9.60;99.90;;;;;;5057221;28;20210;-68
2023/04/13 02:23:10;;;;;;;1.00;0.60;;;9.70;99.90;;;;;;5045342;28;20290;-69
2023/04/13 02:25:36;;;;;;;1.03;0.70;;;9.60;99.90;;;;;;5056711;28;20268;-68
2023/04/13 02:28:02;;;;;;;1.92;0.70;;;9.60;99.90;;;;;;5059309;28;20242;-68
2023/04/13 02:30:28;;;;;;;3.20;0.70;;;9.60;99.90;;;;;;5039220;28;20174;-67
2023/04/13 02:32:54;;;;;;;1.60;0.90;;;9.60;99.90;;;;;;5040385;28;20190;-68
2023/04/13 02:35:24;;;;;;;3.87;1.10;;;9.70;99.90;;;;;;5050446;28;20197;-69
2023/04/13 02:37:50;;;;;;;1.57;0.60;;;9.60;99.90;;;;;;5054160;28;20201;-68
2023/04/13 02:40:15;;;;;;;0.60;0.43;;;9.80;99.90;;;;;;5053045;28;20220;-69
2023/04/13 02:42:41;;;;;;;1.83;0.80;;;9.60;99.90;;;;;;5050605;28;20265;-69
2023/04/13 02:45:13;;;;;;;1.90;0.70;;;9.70;99.90;;;;;;5038013;28;20178;-69
2023/04/13 02:47:43;;;;;;;0.87;0.63;;;9.70;99.90;;;;;;5056201;28;20211;-69
2023/04/13 02:50:12;;;;;;;1.20;0.70;;;9.70;99.90;;;;;;5046168;28;20173;-69
2023/04/13 02:52:38;;;;;;;2.03;0.83;;;9.70;99.90;;;;;;5057763;28;20185;-69
2023/04/13 02:55:07;;;;;;;1.30;0.80;;;9.60;99.90;;;;;;5064251;28;20187;-68
2023/04/13 02:57:35;;;;;;;1.80;0.70;;;9.70;99.90;;;;;;5057208;28;20181;-68
2023/04/13 03:00:10;;;;;;;1.67;0.70;;;9.70;99.90;;;;;;5057628;28;20241;-69
2023/04/13 03:02:41;;;;;;;1.85;0.68;;;9.60;99.90;;;;;;5053412;28;20181;-68
2023/04/13 03:05:07;;;;;;;1.07;0.60;;;9.60;99.90;;;;;;5056095;28;20201;-68
2023/04/13 03:07:35;;;;;;;1.90;0.80;;;9.60;99.90;;;;;;5057688;28;20201;-68
2023/04/13 03:10:04;;;;;;;1.17;0.70;;;9.60;99.90;;;;;;5057031;28;20189;-69
2023/04/13 03:12:32;;;;;;;1.87;0.60;;;9.60;99.90;;;;;;5057565;28;20300;-68
2023/04/13 03:15:01;;;;;;;2.00;0.90;;;9.60;99.90;;;;;;5056624;28;20197;-68
2023/04/13 03:17:28;;;;;;;2.37;0.80;;;9.70;99.90;;;;;;5051154;28;20206;-68
2023/04/13 03:19:55;;;;;;;2.33;0.70;;;9.70;99.90;;;;;;5037608;28;20202;-69
2023/04/13 03:22:20;;;;;;;1.40;0.73;;;9.70;99.90;;;;;;5054783;28;20196;-68
2023/04/13 03:24:46;;;;;;;2.60;0.87;;;9.80;99.90;;;;;;5059760;28;20173;-68
2023/04/13 03:27:16;;;;;;;2.60;0.70;;;9.60;99.90;;;;;;5056858;28;20177;-68
2023/04/13 03:29:42;;;;;;;2.47;0.80;;;9.70;99.90;;;;;;5056771;28;20300;-68
2023/04/13 03:32:08;;;;;;;1.10;0.70;;;9.80;99.90;;;;;;5052679;28;20264;-68
2023/04/13 03:34:34;;;;;;;2.47;0.97;;;9.80;99.90;;;;;;5056571;28;20185;-68
2023/04/13 03:36:59;;;;;;;3.73;0.90;;;9.80;99.90;;;;;;5056127;28;20284;-68
2023/04/13 03:39:25;;;;;;;2.55;0.80;;;9.80;99.90;;;;;;5055814;28;20211;-68
2023/04/13 03:41:51;;;;;;;1.47;0.90;;;9.80;99.90;;;;;;5061862;28;20181;-69
2023/04/13 03:44:16;;;;;;;0.65;0.50;;;9.80;99.90;;;;;;5055613;28;20173;-68
2023/04/13 03:46:43;;;;;;;2.13;0.70;;;9.80;99.90;;;;;;5053625;28;20192;-68
2023/04/13 03:49:12;;;;;;;2.73;0.93;;;9.80;99.90;;;;;;5054682;28;20284;-68
2023/04/13 03:51:40;;;;;;;2.60;0.90;;;9.80;99.90;;;;;;5056491;28;20196;-69
2023/04/13 03:54:08;;;;;;;1.63;0.93;;;9.70;99.90;;;;;;5055663;28;20181;-68
2023/04/13 03:56:36;;;;;;;1.67;0.80;;;9.80;99.90;;;;;;5052506;28;20232;-68
2023/04/13 03:59:04;;;;;;;1.80;1.00;;;9.90;99.90;;;;;;5054988;28;20208;-67
2023/04/13 04:01:30;;;;;;;2.47;0.80;;;9.90;99.90;;;;;;5058219;28;20223;-68
2023/04/13 04:03:56;;;;;;;1.63;0.70;;;9.90;99.90;;;;;;5059188;28;20165;-68
2023/04/13 04:06:28;;;;;;;2.35;0.85;;;9.90;99.90;;;;;;5055966;28;20482;-69
2023/04/13 04:08:53;;;;;;;2.40;0.90;;;10.00;99.90;;;;;;5055081;28;20262;-67
2023/04/13 04:11:21;;;;;;;2.53;0.77;;;9.90;99.90;;;;;;5047951;28;20268;-67
2023/04/13 04:13:47;;;;;;;2.03;0.70;;;9.90;99.90;;;;;;5057108;28;20268;-68
2023/04/13 04:16:13;;;;;;;1.85;0.80;;;10.00;99.90;;;;;;5061930;28;20474;-68
2023/04/13 04:18:39;;;;;;;2.10;0.77;;;9.90;99.90;;;;;;5042941;28;20197;-69
2023/04/13 04:21:07;;;;;;;1.58;0.80;;;9.90;99.90;;;;;;5060197;28;20200;-67
2023/04/13 04:23:38;;;;;;;1.40;0.73;;;10.00;99.90;;;;;;5042509;28;20276;-69
2023/04/13 04:26:05;;;;;;;1.83;0.80;;;10.00;99.90;;;;;;5052045;28;20346;-68
2023/04/13 04:28:42;;;;;;;2.75;0.98;;;10.00;99.90;;;;;;5059576;28;20177;-68
2023/04/13 04:31:11;;;;;;;3.10;1.10;;;10.00;99.90;;;;;;5038159;28;20161;-69
2023/04/13 04:33:43;;;;;;;1.83;0.87;;;10.00;99.90;;;;;;5055121;28;20184;-69
2023/04/13 04:36:15;;;;;;;1.67;0.80;;;10.00;99.90;;;;;;5054880;28;20229;-69
2023/04/13 04:38:46;;;;;;;1.63;0.80;;;10.00;99.90;;;;;;5057724;28;20205;-68
2023/04/13 04:41:12;;;;;;;3.70;0.90;;;10.10;99.90;;;;;;5055031;28;20173;-68
2023/04/13 04:43:38;;;;;;;1.92;0.60;;;10.00;99.90;;;;;;5054249;28;20227;-68
2023/04/13 04:46:06;;;;;;;1.65;1.00;;;10.10;99.90;;;;;;5061648;28;20173;-68
2023/04/13 04:48:36;;;;;;;2.55;0.90;;;10.10;99.90;;;;;;5054330;28;20169;-69
2023/04/13 04:51:02;;;;;;;1.88;1.10;;;10.00;99.90;;;;;;5054929;28;20187;-68
2023/04/13 04:53:27;;;;;;;2.42;0.80;;;10.10;99.90;;;;;;5053805;28;20184;-69
2023/04/13 04:55:53;;;;;;;2.33;0.70;;;10.10;99.90;;;;;;5054322;28;20200;-67
2023/04/13 04:58:19;;;;;;;1.13;0.70;;;10.10;99.90;;;;;;5055175;28;20209;-67
2023/04/13 05:00:46;;;;;;;1.45;0.73;;;10.10;99.90;;;;;;5053366;28;20209;-67
2023/04/13 05:03:12;;;;;;;1.83;0.90;;;10.10;99.90;;;;;;5054223;28;20205;-67
2023/04/13 05:05:37;;;;;;;2.13;0.75;;;10.10;99.90;;;;;;5054289;28;20225;-67
2023/04/13 05:08:04;;;;;;;1.00;0.60;;;10.10;99.90;;;;;;5054815;28;20169;-66
2023/04/13 05:10:32;;;;;;;1.98;0.63;;;10.10;99.90;;;;;;5054574;28;20201;-67
2023/04/13 05:12:57;;;;;;;1.70;0.70;;;10.10;99.90;;;;;;5053471;28;20173;-67
2023/04/13 05:15:23;;;;;;;1.60;0.60;;;10.10;99.90;;;;;;5051866;28;20188;-66
2023/04/13 05:17:49;;;;;;;1.73;0.60;;;10.10;99.90;;;;;;5054298;28;20207;-67
2023/04/13 05:20:16;;;;;;;1.57;0.70;;;10.10;99.90;;;;;;5054071;28;20201;-67
2023/04/13 05:22:42;;;;;;;1.77;0.52;;;10.10;99.90;;;;;;5039981;28;20194;-67
2023/04/13 05:25:08;;;;;;;1.25;0.73;;;10.10;99.90;;;;;;5049106;28;20242;-67
2023/04/13 05:27:38;;;;;;;1.13;0.70;;;10.10;99.90;;;;;;5052788;28;20182;-67
2023/04/13 05:30:07;;;;;;;1.73;0.70;;;10.10;99.90;;;;;;5050871;28;20215;-66
2023/04/13 05:32:33;;;;;;;1.08;0.55;;;10.10;99.90;;;;;;5050964;28;20177;-67
2023/04/13 05:35:03;;;;;;;0.98;0.57;;;10.20;99.90;;;;;;5053068;28;20181;-67
2023/04/13 05:37:31;;;;;;;1.88;0.60;;;10.10;99.90;;;;;;5049579;28;20182;-67
2023/04/13 05:39:57;;;;;;;1.80;0.80;;;10.10;99.90;;;;;;5050973;28;20194;-67
2023/04/13 05:42:23;;;;;;;1.00;0.70;;;10.20;99.90;;;;;;5052033;28;20205;-67
2023/04/13 05:44:51;;;;;;;0.65;0.50;;;10.20;99.90;;;;;;5054277;28;20208;-67
2023/04/13 05:47:22;;;;;;;1.00;0.60;;;10.20;99.90;;;;;;5053599;28;20177;-67
2023/04/13 05:49:47;;;;;;;0.50;0.40;;;10.20;99.90;;;;;;5053612;28;20185;-67
2023/04/13 05:52:15;;;;;;;2.00;0.70;;;10.20;99.90;;;;;;5050428;28;20177;-71
2023/04/13 05:54:41;;;;;;;0.68;0.40;;;10.20;99.90;;;;;;5044971;28;20197;-67
2023/04/13 05:57:06;;;;;;;1.52;0.45;;;10.20;99.90;;;;;;5053744;28;20184;-67
2023/04/13 05:59:32;;;;;;;1.63;0.50;;;10.20;99.90;;;;;;5053442;28;20212;-67
2023/04/13 06:01:59;;;;;;;1.48;0.60;;;10.20;99.90;;;;;;5038997;28;20224;-66
2023/04/13 06:04:25;;;;;;;2.30;0.70;;;10.20;99.90;;;;;;5052971;28;20177;-66
2023/04/13 06:06:51;;;;;;;1.13;0.47;;;10.10;99.90;;;;;;5050105;28;20199;-67
2023/04/13 06:09:17;;;;;;;0.77;0.50;;;10.10;99.90;;;;;;5052902;28;20308;-67
2023/04/13 06:11:43;;;;;;;0.75;0.40;;;10.00;99.90;;;;;;5054684;28;20235;-66
2023/04/13 06:14:08;;;;;;;0.45;0.30;;;10.00;99.90;;;;;;5056825;28;20185;-66
2023/04/13 06:16:34;;;;;;;1.20;0.45;;;9.90;99.90;;;;;;5057117;28;20200;-67
2023/04/13 06:19:00;;;;;;;0.60;0.43;;;10.00;99.90;;;;;;5057481;28;20197;-66
2023/04/13 06:21:29;;;;;;;1.05;0.32;;;9.90;99.90;;;;;;5056982;28;20196;-66
2023/04/13 06:23:56;;;;;;;1.52;0.80;;;9.90;99.90;;;;;;5057220;28;20251;-67
2023/04/13 06:26:23;;;;;;;1.52;0.80;;;9.90;99.90;;;;;;5057303;28;20285;-68
2023/04/13 06:28:49;;;;;;;0.82;0.45;;;9.90;99.90;;;;;;5057532;28;20197;-67
2023/04/13 06:31:15;;;;;;;2.72;0.65;;;10.00;99.90;;;;;;5057335;28;20227;-67
2023/04/13 06:33:45;;;;;;;0.93;0.52;;;9.90;99.90;;;;;;5057553;28;20234;-64
2023/04/13 06:36:11;;;;;;;1.70;0.60;;;10.00;99.90;;;;;;5056350;28;20230;-66
2023/04/13 06:38:37;;;;;;;0.60;0.60;;;9.90;99.90;;;;;;5056895;28;20193;-67
2023/04/13 06:41:03;;;;;;;1.00;0.50;;;9.90;99.90;;;;;;5053646;28;20256;-67
2023/04/13 06:43:33;;;;;;;0.70;0.45;;;9.90;99.90;;;;;;5055819;28;20193;-66
2023/04/13 06:46:05;;;;;;;0.80;0.40;;;9.90;99.90;;;;;;5047609;28;20178;-67
2023/04/13 06:48:31;;;;;;;1.15;0.50;;;9.80;99.90;;;;;;5055332;28;20185;-67
2023/04/13 06:50:59;;;;;;;0.85;0.55;;;9.80;99.90;;;;;;5066937;28;20204;-67
2023/04/13 06:53:25;;;;;;;1.25;0.32;;;9.90;99.90;;;;;;5060069;28;20179;-67
2023/04/13 06:55:51;;;;;;;1.48;0.55;;;9.90;99.90;;;;;;5055126;28;20193;-66
2023/04/13 06:58:16;;;;;;;1.17;0.45;;;9.90;99.90;;;;;;5057345;28;20184;-66
2023/04/13 07:00:42;;;;;;;0.75;0.40;;;9.90;99.90;;;;;;5057198;28;20221;-66
2023/04/13 07:03:07;;;;;;;0.35;0.35;;;10.00;99.90;;;;;;5056653;28;20260;-67
2023/04/13 07:05:33;;;;;;;0.63;0.35;;;10.00;99.90;;;;;;5057389;28;20158;-66
2023/04/13 07:07:59;;;;;;;3.25;0.60;;;10.00;99.90;;;;;;5057064;28;20185;-67
2023/04/13 07:10:27;;;;;;;1.15;0.43;;;10.00;99.90;;;;;;5057037;28;20197;-67
2023/04/13 07:12:55;;;;;;;0.80;0.40;;;10.10;99.90;;;;;;5057195;28;20256;-67
2023/04/13 07:15:20;;;;;;;1.75;0.50;;;10.10;99.90;;;;;;5057156;28;20177;-67
2023/04/13 07:17:46;;;;;;;0.55;0.40;;;10.10;99.90;;;;;;5056880;28;20246;-66
2023/04/13 07:20:12;;;;;;;1.30;0.40;;;10.10;99.90;;;;;;5056805;28;20196;-66
2023/04/13 07:22:37;;;;;;;0.93;0.57;;;10.20;99.90;;;;;;5056743;28;20169;-66
2023/04/13 07:25:04;;;;;;;0.70;0.43;;;10.20;99.90;;;;;;5056400;28;20201;-65
2023/04/13 07:27:32;;;;;;;1.25;0.50;;;10.20;99.90;;;;;;5057039;28;20238;-66
2023/04/13 07:29:58;;;;;;;1.08;0.40;;;10.30;99.90;;;;;;5056869;28;20177;-65
2023/04/13 07:32:26;;;;;;;0.75;0.50;;;10.30;99.90;;;;;;5053392;28;20456;-66
2023/04/13 07:35:00;;;;;;;1.92;0.50;;;10.30;99.90;;;;;;5053114;28;20188;-67
2023/04/13 07:37:25;;;;;;;0.50;0.30;;;10.30;99.90;;;;;;5053175;28;20180;-67
2023/04/13 07:39:51;;;;;;;1.15;0.50;;;10.30;99.90;;;;;;5056196;28;20291;-67
2023/04/13 07:42:22;;;;;;;1.17;0.60;;;10.40;99.90;;;;;;5056276;28;20185;-67
2023/04/13 07:44:47;;;;;;;0.60;0.40;;;10.40;99.90;;;;;;5056165;28;20237;-66
2023/04/13 07:47:13;;;;;;;0.90;0.30;;;10.50;99.90;;;;;;5056532;28;20273;-67
2023/04/13 07:49:41;;;;;;;0.65;0.30;;;10.60;99.90;;;;;;5056372;28;20180;-67
2023/04/13 07:52:06;;;;;;;1.48;0.35;;;10.60;99.90;;;;;;5052669;28;20261;-67
2023/04/13 07:54:33;;;;;;;1.02;0.45;;;10.70;99.90;;;;;;5052970;28;20182;-67
2023/04/13 07:57:01;;;;;;;0.82;0.40;;;10.70;99.90;;;;;;5053187;28;20181;-67
2023/04/13 07:59:26;;;;;;;0.70;0.52;;;10.60;99.90;;;;;;5055586;28;20213;-68
2023/04/13 08:01:52;;;;;;;0.75;0.43;;;10.80;99.90;;;;;;5045605;28;20235;-66
2023/04/13 08:04:20;;;;;;;0.82;0.50;;;10.80;99.90;;;;;;5063026;28;20239;-67
2023/04/13 08:06:47;;;;;;;1.40;0.50;;;10.80;99.90;;;;;;5052129;28;20265;-67
2023/04/13 08:09:15;;;;;;;1.50;0.80;;;10.90;99.90;;;;;;5051007;28;20183;-67
2023/04/13 08:11:44;;;;;;;0.65;0.50;;;11.00;99.90;;;;;;5056044;28;20411;-66
2023/04/13 08:14:13;;;;;;;0.88;0.47;;;10.90;99.90;;;;;;5055895;28;20242;-68
2023/04/13 08:19:16;;;;;;;0.80;0.60;;;11.00;99.90;;;;;;5014543;28;20214;-68
2023/04/13 08:21:44;;;;;;;1.40;0.70;;;11.00;99.90;;;;;;4999408;28;20197;-68
2023/04/13 08:24:12;;;;;;;1.00;0.55;;;11.00;99.90;;;;;;4999670;28;20170;-68
2023/04/13 08:26:41;;;;;;;0.90;0.47;;;11.10;99.90;;;;;;4999611;28;20175;-68
2023/04/13 08:29:07;;;;;;;1.20;0.50;;;11.00;99.90;;;;;;5016038;28;20186;-68
2023/04/13 08:31:35;;;;;;;2.85;0.70;;;11.10;99.90;;;;;;5015542;28;20175;-68
2023/04/13 08:34:03;;;;;;;1.58;0.60;;;11.10;99.90;;;;;;4999509;28;20213;-68
2023/04/13 08:36:29;;;;;;;1.20;0.43;;;11.10;99.90;;;;;;4999406;28;20190;-68
2023/04/13 08:38:57;;;;;;;2.53;0.73;;;11.20;99.90;;;;;;4998865;28;20191;-68
2023/04/13 08:41:24;;;;;;;1.00;0.70;;;11.20;99.90;;;;;;4999233;28;20190;-69
2023/04/13 08:43:50;;;;;;;1.00;0.60;;;11.20;99.90;;;;;;4999424;28;20170;-71
2023/04/13 08:46:19;;;;;;;2.92;0.88;;;11.30;99.90;;;;;;4998950;28;20181;-68
2023/04/13 08:48:47;;;;;;;0.85;0.50;;;11.30;99.90;;;;;;4998648;28;20203;-67
2023/04/13 08:51:13;;;;;;;0.50;0.50;;;11.40;99.90;;;;;;4999045;28;20205;-68
2023/04/13 08:53:41;;;;;;;2.60;1.20;;;11.40;99.90;;;;;;5004201;28;20174;-69
2023/04/13 08:56:13;;;;;;;3.15;1.10;;;11.40;99.90;;;;;;5015402;28;20194;-68
2023/04/13 08:58:42;;;;;;;1.10;0.60;;;11.60;99.90;;;;;;5004048;28;20198;-68
2023/04/13 09:01:15;;;;;;;3.65;0.90;;;11.60;99.90;;;;;;5015159;28;20199;-70
2023/04/13 09:03:52;;;;;;;1.83;0.82;;;11.70;99.90;;;;;;5004345;28;20217;-68
2023/04/13 09:06:24;;;;;;;3.78;0.90;;;11.90;99.90;;;;;;5000562;28;20186;-68
2023/04/13 09:08:54;;;;;;;3.78;0.90;;;12.00;99.90;;;;;;5008741;28;20179;-66
2023/04/13 09:11:21;;;;;;;1.77;0.90;;;12.10;99.90;;;;;;5015116;28;20206;-68
2023/04/13 09:13:50;;;;;;;2.65;0.80;;;12.30;99.90;;;;;;4998758;28;20244;-66
2023/04/13 09:16:17;;;;;;;2.80;0.93;;;12.30;99.90;;;;;;5014831;28;20201;-68
2023/04/13 09:18:50;;;;;;;1.52;0.68;;;12.30;99.90;;;;;;5014706;28;20333;-70
2023/04/13 09:21:16;;;;;;;2.83;0.90;;;12.40;99.90;;;;;;5014755;28;20199;-68
2023/04/13 09:23:52;;;;;;;2.28;1.20;;;12.50;99.90;;;;;;5003545;28;20273;-68
2023/04/13 09:26:20;;;;;;;3.05;1.10;;;12.50;99.90;;;;;;5000129;28;20198;-66
2023/04/13 09:28:46;;;;;;;2.97;1.00;;;12.50;99.90;;;;;;5000483;28;20170;-68
2023/04/13 09:31:18;;;;;;;3.63;1.15;;;12.60;99.90;;;;;;4995307;28;20175;-69
2023/04/13 09:33:48;;;;;;;5.45;1.40;;;12.60;99.90;;;;;;4998589;28;20174;-69
2023/04/13 09:36:19;;;;;;;3.45;1.10;;;12.70;99.90;;;;;;4998543;28;20265;-68
2023/04/13 09:38:54;;;;;;;2.92;0.98;;;12.70;99.90;;;;;;4998591;28;20174;-68
2023/04/13 09:41:39;;;;;;;2.80;1.10;;;12.70;99.90;;;;;;4998559;28;20261;-69
2023/04/13 09:44:23;;;;;;;3.13;1.10;;;12.80;99.90;;;;;;4987414;28;20195;-68
2023/04/13 09:47:02;;;;;;;5.05;0.80;;;12.90;99.90;;;;;;4997637;28;20198;-68
2023/04/13 09:49:42;;;;;;;3.28;1.05;;;12.90;99.90;;;;;;4998203;28;20193;-66
2023/04/13 09:52:24;;;;;;;2.28;0.90;;;13.00;99.90;;;;;;4998219;28;20202;-69
2023/04/13 09:54:52;;;;;;;2.58;1.08;;;13.00;99.90;;;;;;4998433;28;20174;-68
2023/04/13 09:57:31;;;;;;;2.33;0.90;;;12.90;99.90;;;;;;4998118;28;20185;-68
2023/04/13 10:00:00;;;;;;;2.97;1.33;;;12.90;99.90;;;;;;4994744;28;20198;-66
2023/04/13 10:02:26;;;;;;;3.17;0.73;;;12.90;99.90;;;;;;5009132;28;20209;-63
2023/04/13 10:04:53;;;;;;;1.63;0.82;;;13.10;99.90;;;;;;4997933;28;20435;-68
2023/04/13 10:07:25;;;;;;;5.07;1.40;;;13.30;99.90;;;;;;4997950;28;20174;-68
2023/04/13 10:09:52;;;;;;;2.33;0.85;;;13.60;99.90;;;;;;4997710;28;20182;-69
2023/04/13 10:12:18;;;;;;;3.38;0.80;;;13.90;99.90;;;;;;5010196;28;20207;-67
2023/04/13 10:14:48;;;;;;;2.60;0.93;;;14.30;99.90;;;;;;4994751;28;20179;-68
2023/04/13 10:17:36;;;;;;;2.17;1.00;;;14.50;99.90;;;;;;5016748;28;20182;-67
2023/04/13 10:20:10;;;;;;;2.97;0.95;;;14.60;99.90;;;;;;5013796;28;20202;-66
2023/04/13 10:22:37;;;;;;;4.57;1.25;;;14.50;99.90;;;;;;5002365;28;20197;-67
2023/04/13 10:25:05;;;;;;;3.30;1.25;;;14.30;99.90;;;;;;4998190;28;20183;-68
2023/04/13 10:27:35;;;;;;;2.83;1.15;;;14.20;99.90;;;;;;5014888;28;20191;-68
2023/04/13 10:30:20;;;;;;;4.50;1.55;;;14.00;99.90;;;;;;4997399;28;20273;-66
2023/04/13 10:32:48;;;;;;;3.35;1.00;;;14.00;99.90;;;;;;4997315;28;20290;-68
2023/04/13 10:35:14;;;;;;;4.90;1.30;;;13.90;99.90;;;;;;4997263;28;20186;-65
2023/04/13 10:37:44;;;;;;;4.75;1.20;;;13.80;99.90;;;;;;5013428;28;20266;-68
2023/04/13 10:40:13;;;;;;;3.42;0.95;;;13.90;99.90;;;;;;5005708;28;20454;-67
2023/04/13 10:42:49;;;;;;;3.35;1.48;;;13.80;99.90;;;;;;4997250;28;20186;-67
2023/04/13 10:45:19;;;;;;;2.50;1.20;;;13.80;99.90;;;;;;4997268;28;20233;-66
2023/04/13 10:47:45;;;;;;;3.15;1.10;;;13.70;99.90;;;;;;4996957;28;20199;-68
2023/04/13 10:50:23;;;;;;;5.80;1.65;;;13.70;99.90;;;;;;4997455;28;20178;-68
2023/04/13 10:52:58;;;;;;;2.88;1.30;;;13.70;99.90;;;;;;4997077;28;20189;-67
2023/04/13 10:55:26;;;;;;;6.57;1.70;;;13.70;99.90;;;;;;4996781;28;20237;-68
2023/04/13 10:57:57;;;;;;;4.88;1.73;;;13.80;99.90;;;;;;4996976;28;20233;-68
2023/04/13 11:00:24;;;;;;;4.68;1.52;;;14.00;99.90;;;;;;5000623;28;20202;-68
2023/04/13 11:02:55;;;;;;;6.10;1.50;;;14.00;99.90;;;;;;5000185;28;20175;-69
2023/04/13 11:05:26;;;;;;;4.25;1.58;;;14.00;99.90;;;;;;5016822;28;20175;-69
2023/04/13 11:07:56;;;;;;;4.50;1.65;;;14.10;99.90;;;;;;4987726;28;20193;-64
2023/04/13 11:10:29;;;;;;;3.92;1.35;;;14.20;99.90;;;;;;5000338;28;20186;-67
2023/04/13 11:12:58;;;;;;;4.40;1.55;;;14.40;99.90;;;;;;4999960;28;20170;-67
2023/04/13 11:15:32;;;;;;;3.83;1.38;;;14.40;99.90;;;;;;5016545;28;20229;-69
2023/04/13 11:17:59;;;;;;;6.97;1.67;;;14.40;99.90;;;;;;4996937;28;20211;-64
2023/04/13 11:20:40;;;;;;;3.75;1.48;;;14.40;99.90;;;;;;5012413;28;20194;-67
2023/04/13 11:23:14;;;;;;;3.92;1.27;;;14.30;99.90;;;;;;5000396;28;20222;-68
2023/04/13 11:26:00;;;;;;;4.38;1.35;;;14.40;99.90;;;;;;5000052;28;20170;-65
2023/04/13 11:28:35;;;;;;;4.90;1.58;;;14.60;99.90;;;;;;4996636;28;20273;-67
2023/04/13 11:31:03;;;;;;;5.43;1.70;;;14.70;99.90;;;;;;5004544;28;20242;-66
2023/04/13 11:33:30;;;;;;;8.77;1.50;;;14.70;99.90;;;;;;4997470;28;20179;-67
2023/04/13 11:35:58;;;;;;;4.28;1.70;;;14.70;99.90;;;;;;4991377;28;20230;-63
2023/04/13 11:38:27;;;;;;;6.22;1.70;;;14.70;99.90;;;;;;5015935;28;20174;-68
2023/04/13 11:40:58;;;;;;;3.90;1.40;;;14.70;99.90;;;;;;5009885;28;20209;-68
2023/04/13 11:43:24;;;;;;;4.35;1.23;;;14.70;99.90;;;;;;4999476;28;20256;-68
2023/04/13 11:45:51;;;;;;;4.97;1.50;;;14.60;99.90;;;;;;4997231;28;20210;-66
2023/04/13 11:48:18;;;;;;;3.60;1.33;;;14.60;99.90;;;;;;4997061;28;20199;-67
2023/04/13 11:50:48;;;;;;;4.03;1.55;;;14.60;99.90;;;;;;4980107;28;20199;-68
2023/04/13 11:53:14;;;;;;;5.38;1.65;;;14.60;99.90;;;;;;4987374;28;20183;-68
2023/04/13 11:55:42;;;;;;;4.50;1.50;;;14.60;99.90;;;;;;5016111;28;20206;-68
2023/04/13 11:58:14;;;;;;;5.55;1.48;;;14.60;99.90;;;;;;5015516;28;20293;-67
2023/04/13 12:00:40;;;;;;;4.72;1.30;;;14.60;99.90;;;;;;5015845;28;20196;-68
2023/04/13 12:03:14;;;;;;;4.75;1.40;;;14.60;99.90;;;;;;5016214;28;20201;-68
2023/04/13 12:05:44;;;;;;;4.55;1.48;;;14.70;99.90;;;;;;5015229;28;20170;-68
2023/04/13 12:08:23;;;;;;;4.63;1.40;;;14.80;99.90;;;;;;4999371;28;20232;-69
2023/04/13 12:11:20;;;;;;;6.30;1.70;;;14.90;99.90;;;;;;5016131;28;20198;-69
2023/04/13 12:13:50;;;;;;;5.15;1.45;;;15.10;99.90;;;;;;4980141;28;20187;-67
2023/04/13 12:16:30;;;;;;;3.38;1.45;;;15.20;99.90;;;;;;4999165;28;20246;-68
2023/04/13 12:18:58;;;;;;;5.28;1.60;;;15.30;99.90;;;;;;5011789;28;20229;-68
2023/04/13 12:21:26;;;;;;;3.67;1.40;;;15.40;99.90;;;;;;4995780;28;20182;-68
2023/04/13 12:23:57;;;;;;;3.83;1.40;;;15.50;99.90;;;;;;5002518;28;20185;-66
2023/04/13 12:26:33;;;;;;;4.82;1.60;;;15.50;99.90;;;;;;5006252;28;20168;-67
2023/04/13 12:29:05;;;;;;;8.75;1.58;;;15.60;99.90;;;;;;4998940;28;20280;-68
2023/04/13 12:31:37;;;;;;;5.18;1.50;;;15.70;99.90;;;;;;4998735;28;20262;-65
2023/04/13 12:34:04;;;;;;;4.32;1.50;;;15.80;99.90;;;;;;4998899;28;20155;-67
2023/04/13 12:36:34;;;;;;;5.15;1.77;;;15.80;99.90;;;;;;4998536;28;20170;-68
2023/04/13 12:39:00;;;;;;;5.07;1.42;;;15.90;99.90;;;;;;4996867;28;20206;-68
2023/04/13 12:41:29;;;;;;;4.32;1.30;;;16.00;99.90;;;;;;5014342;28;20185;-66
2023/04/13 12:43:54;;;;;;;4.47;1.42;;;16.00;99.90;;;;;;4997608;28;20175;-68
2023/04/13 12:46:23;;;;;;;2.60;1.30;;;16.10;99.90;;;;;;5010342;28;20213;-67
2023/04/13 12:48:49;;;;;;;3.08;1.50;;;16.20;99.90;;;;;;5010378;28;20193;-65
2023/04/13 12:51:15;;;;;;;4.13;1.50;;;16.50;99.90;;;;;;4998175;28;21937;-68
2023/04/13 12:53:40;;;;;;;3.10;1.50;;;16.70;99.90;;;;;;4998765;28;20202;-68
2023/04/13 12:56:06;;;;;;;5.05;1.48;;;16.80;99.90;;;;;;4998928;28;20190;-67
2023/04/13 12:58:34;;;;;;;2.70;1.27;;;16.90;99.90;;;;;;4998801;28;20175;-67
2023/04/13 13:01:01;;;;;;;3.75;1.40;;;17.00;99.90;;;;;;4998666;28;20228;-68